createdAt,value
2018-07-06T00:05:46.824Z,26.6
2018-07-06T00:16:00.973Z,26.5
2018-07-06T00:26:15.583Z,27.8
2018-07-06T00:36:29.315Z,27.1
2018-07-06T00:47:14.730Z,27.8
2018-07-06T00:57:28.278Z,27.5
2018-07-06T01:08:13.940Z,26.7
2018-07-06T01:18:59.548Z,28.5
2018-07-06T01:29:13.009Z,28.9
2018-07-06T01:39:27.156Z,27.5
2018-07-06T01:50:13.016Z,27.1
2018-07-06T02:00:58.512Z,27.9
2018-07-06T02:11:10.303Z,32.6
2018-07-06T02:21:55.110Z,28.5
2018-07-06T02:32:40.255Z,28.5
2018-07-06T02:42:51.527Z,29.1
2018-07-06T02:53:37.418Z,30.6
2018-07-06T03:04:22.815Z,29.9
2018-07-06T03:14:36.374Z,27.6
2018-07-06T03:24:50.833Z,31.7
2018-07-06T03:35:53.129Z,30.6
2018-07-06T03:46:05.277Z,31.2
2018-07-06T03:56:19.485Z,29.1
2018-07-06T04:06:33.514Z,29.0
2018-07-06T04:17:19.287Z,31.8
2018-07-06T04:28:05.134Z,36.1
2018-07-06T04:38:50.895Z,37.9
2018-07-06T04:49:37.214Z,35.0
2018-07-06T05:10:18.105Z,34.0
2018-07-06T05:21:04.252Z,33.4
2018-07-06T05:31:46.552Z,31.5
2018-07-06T05:42:32.055Z,34.5
2018-07-06T05:52:56.243Z,31.5
2018-07-06T06:03:10.771Z,31.4
2018-07-06T06:13:24.977Z,32.4
2018-07-06T06:23:36.810Z,29.3
2018-07-06T06:33:51.694Z,30.1
2018-07-06T06:44:03.051Z,30.4
2018-07-06T06:54:50.709Z,35.9
2018-07-06T07:05:36.772Z,36.6
2018-07-06T07:16:22.435Z,32.8
2018-07-06T07:27:08.390Z,34.6
2018-07-06T07:37:53.691Z,31.8
2018-07-06T07:48:08.185Z,29.1
2018-07-06T07:58:22.567Z,29.4
2018-07-06T08:08:36.862Z,26.1
2018-07-06T08:18:52.577Z,27.8
2018-07-06T08:29:06.330Z,26.5
2018-07-06T08:39:20.340Z,25.8
2018-07-06T08:49:34.510Z,24.7
2018-07-06T08:59:48.492Z,25.1
2018-07-06T09:10:03.022Z,23.1
2018-07-06T09:20:48.574Z,26.2
2018-07-06T09:31:00.605Z,22.7
2018-07-06T09:41:15.016Z,22.5
2018-07-06T09:51:29.324Z,21.6
2018-07-06T10:01:43.595Z,21.3
2018-07-06T10:12:29.811Z,23.1
2018-07-06T10:23:17.916Z,19.5
2018-07-06T10:34:03.643Z,20.4
2018-07-06T10:44:49.874Z,20.2
2018-07-06T10:56:19.397Z,19.6
2018-07-06T11:07:07.688Z,19.3
2018-07-06T11:17:54.128Z,19.8
2018-07-06T11:28:09.355Z,19.5
2018-07-06T11:38:23.767Z,19.4
2018-07-06T11:48:38.927Z,19.6
2018-07-06T11:59:26.378Z,20.0
2018-07-06T12:10:11.310Z,20.2
2018-07-06T12:20:57.630Z,20.4
2018-07-06T12:31:42.945Z,21.8
2018-07-06T12:41:57.338Z,20.7
2018-07-06T12:52:11.635Z,20.8
2018-07-06T13:02:31.902Z,21.3
2018-07-06T13:13:42.240Z,26.4
2018-07-06T13:23:56.196Z,21.1
2018-07-06T13:34:10.986Z,20.9
2018-07-06T13:44:25.235Z,21.5
2018-07-06T13:54:36.513Z,21.2
2018-07-06T14:05:22.164Z,21.2
2018-07-06T14:16:07.948Z,21.9
2018-07-06T14:26:20.033Z,21.0
2018-07-06T16:08:29.822Z,22.7
2018-07-06T16:18:43.598Z,23.1
2018-07-06T16:29:32.063Z,25.0
2018-07-06T16:40:21.107Z,25.7
2018-07-06T16:50:36.637Z,23.6
2018-07-06T17:00:50.971Z,23.6
2018-07-06T17:11:03.066Z,24.1
2018-07-06T17:21:48.740Z,25.1
2018-07-06T17:32:03.239Z,26.0
2018-07-06T17:42:15.360Z,24.5
2018-07-06T17:52:29.869Z,24.5
2018-07-06T18:02:43.995Z,24.2
2018-07-06T18:13:29.407Z,25.3
2018-07-06T18:50:23.849Z,26.3
2018-07-06T19:01:23.346Z,31.9
2018-07-06T19:12:11.336Z,26.3
2018-07-06T19:46:39.793Z,25.6
2018-07-06T19:57:00.797Z,25.2
2018-07-06T20:08:59.191Z,27.3
2018-07-06T20:20:11.555Z,25.3
2018-07-06T20:30:25.492Z,26.4
2018-07-06T20:41:11.331Z,30.5
2018-07-06T20:51:56.680Z,25.1
2018-07-06T21:02:42.780Z,26.6
2018-07-06T21:13:00.435Z,30.8
2018-07-06T21:23:14.253Z,26.5
2018-07-06T21:33:25.619Z,25.5
2018-07-06T21:44:11.497Z,28.0
2018-07-06T22:30:18.110Z,26.4
2018-07-06T22:40:31.926Z,26.5
2018-07-06T22:51:17.009Z,26.4
2018-07-06T23:01:31.469Z,29.3
2018-07-06T23:11:45.370Z,27.5
2018-07-06T23:22:32.240Z,27.4
2018-07-06T23:32:46.616Z,26.5
2018-07-06T23:43:32.427Z,28.2
2018-07-06T23:54:18.208Z,26.1
